Time;durP1;ratioP1;P1;durP2;ratioP2;P2;SDS_P1;SDS_P2;PMS_P1;PMS_P2;Temp;Humidity;BMP_temperature;BMP_pressure;BME280_temperature;BME280_humidity;BME280_pressure;Samples;Min_cycle;Max_cycle;Signal;HPM_P1;HPM_P2
2023/08/30 00:02:19;;;;;;;4.20;1.40;;;;;;;16.84;58.74;100621.75;4972145;28;107764;-63
2023/08/30 00:04:44;;;;;;;2.20;1.40;;;;;;;16.82;58.77;100623.59;4970528;28;97122;-63
2023/08/30 00:07:10;;;;;;;1.47;1.37;;;;;;;16.78;58.99;100615.56;4976408;28;96870;-63
2023/08/30 00:09:36;;;;;;;1.10;1.10;;;;;;;16.75;58.81;100613.09;4972977;28;97124;-63
2023/08/30 00:12:02;;;;;;;1.17;1.13;;;;;;;16.73;58.64;100616.41;4967233;28;97122;-63
2023/08/30 00:14:28;;;;;;;1.70;1.60;;;;;;;16.68;58.66;100616.53;4973666;28;97525;-63
2023/08/30 00:16:53;;;;;;;1.30;1.10;;;;;;;16.64;58.60;100618.88;4971952;28;97097;-63
2023/08/30 00:19:18;;;;;;;1.50;1.40;;;;;;;16.57;58.71;100614.72;4970893;28;102350;-63
2023/08/30 00:21:44;;;;;;;1.77;1.53;;;;;;;16.52;58.74;100620.38;4972119;28;98682;-63
2023/08/30 00:24:09;;;;;;;1.73;1.27;;;;;;;16.47;58.91;100611.59;4973227;28;96716;-63
2023/08/30 00:26:35;;;;;;;1.60;1.50;;;;;;;16.47;59.03;100608.81;4972367;28;96943;-63
2023/08/30 00:29:00;;;;;;;1.50;1.40;;;;;;;16.46;59.05;100612.88;4975787;28;96892;-63
2023/08/30 00:31:25;;;;;;;1.20;1.10;;;;;;;16.45;58.97;100607.84;4969786;28;103225;-63
2023/08/30 00:33:51;;;;;;;1.77;1.50;;;;;;;16.41;59.01;100613.72;4974050;28;98219;-63
2023/08/30 00:36:18;;;;;;;1.33;1.23;;;;;;;16.38;59.08;100612.00;4977404;28;97251;-63
2023/08/30 00:38:43;;;;;;;1.33;1.23;;;;;;;16.36;59.09;100611.03;4973989;28;97373;-62
2023/08/30 00:41:09;;;;;;;1.33;1.27;;;;;;;16.33;59.03;100606.56;4968964;28;97138;-62
2023/08/30 00:43:34;;;;;;;1.50;1.40;;;;;;;16.30;59.04;100602.84;4968381;28;97002;-62
2023/08/30 00:45:59;;;;;;;2.17;1.17;;;;;;;16.25;59.05;100603.66;4969983;28;97648;-63
2023/08/30 00:48:25;;;;;;;1.13;1.13;;;;;;;16.21;59.11;100608.03;4965875;28;97058;-62
2023/08/30 00:50:51;;;;;;;1.37;1.27;;;;;;;16.16;58.96;100597.81;4968571;28;97694;-62
2023/08/30 00:53:17;;;;;;;0.90;0.90;;;;;;;16.15;58.94;100602.59;4968037;28;97042;-62
2023/08/30 00:55:43;;;;;;;1.20;1.10;;;;;;;16.10;58.95;100597.91;4968165;28;97246;-63
2023/08/30 00:58:10;;;;;;;1.10;1.00;;;;;;;16.05;58.95;100592.44;4968714;28;97287;-62
2023/08/30 01:00:35;;;;;;;1.47;1.37;;;;;;;16.03;58.76;100597.78;4969429;28;96954;-62
2023/08/30 01:03:01;;;;;;;5.70;1.37;;;;;;;15.99;58.97;100597.34;4967279;28;97126;-64
2023/08/30 01:05:27;;;;;;;1.10;1.10;;;;;;;15.94;59.07;100598.94;4972263;28;96873;-63
2023/08/30 01:07:53;;;;;;;1.17;1.17;;;;;;;15.91;59.03;100594.44;4972806;28;97435;-63
2023/08/30 01:10:36;;;;;;;1.10;1.00;;;;;;;15.89;59.02;100599.03;4976693;28;97628;-63
2023/08/30 01:13:08;;;;;;;1.50;1.40;;;;;;;15.85;59.13;100599.34;4976125;28;97051;-63
2023/08/30 01:15:35;;;;;;;1.73;1.10;;;;;;;15.81;59.18;100595.41;4974549;28;97130;-63
2023/08/30 01:18:04;;;;;;;1.33;1.33;;;;;;;15.78;59.13;100602.75;4970190;28;97734;-63
2023/08/30 01:20:34;;;;;;;1.00;0.90;;;;;;;15.73;59.00;100603.56;4968662;28;96998;-63
2023/08/30 01:23:10;;;;;;;1.40;1.30;;;;;;;15.67;59.33;100591.81;4967867;28;96901;-63
2023/08/30 01:25:53;;;;;;;1.07;1.07;;;;;;;15.66;59.46;100591.06;4972009;28;97202;-63
2023/08/30 01:28:24;;;;;;;1.40;1.30;;;;;;;15.63;59.23;100583.81;4967975;28;100705;-63
2023/08/30 01:30:51;;;;;;;1.73;1.63;;;;;;;15.61;59.12;100577.31;4972359;28;97117;-63
2023/08/30 01:33:18;;;;;;;1.23;1.23;;;;;;;15.57;59.06;100571.31;4968149;28;97431;-63
2023/08/30 01:35:44;;;;;;;1.23;1.23;;;;;;;15.57;58.90;100565.78;4969426;28;96854;-63
2023/08/30 01:38:10;;;;;;;1.00;0.97;;;;;;;15.54;58.92;100561.28;4973344;28;96845;-63
2023/08/30 01:40:39;;;;;;;1.57;1.47;;;;;;;15.50;58.91;100561.59;4969278;28;97320;-63
2023/08/30 01:43:07;;;;;;;1.30;1.20;;;;;;;15.46;58.89;100552.84;4968860;28;96776;-63
2023/08/30 01:45:38;;;;;;;1.33;1.30;;;;;;;15.40;59.01;100552.13;4967357;28;96997;-63
2023/08/30 01:48:05;;;;;;;1.47;1.37;;;;;;;15.37;58.89;100549.69;4969013;28;97014;-63
2023/08/30 01:50:32;;;;;;;2.17;1.20;;;;;;;15.32;58.94;100550.50;4968760;28;97046;-63
2023/08/30 01:52:59;;;;;;;1.27;1.17;;;;;;;15.28;58.98;100558.38;4975196;28;97289;-63
2023/08/30 01:55:26;;;;;;;2.20;1.03;;;;;;;15.24;58.99;100561.47;4969727;28;96825;-63
2023/08/30 01:57:51;;;;;;;1.37;1.27;;;;;;;15.23;59.17;100564.75;4969507;28;97231;-63
2023/08/30 02:00:17;;;;;;;1.50;1.40;;;;;;;15.20;59.17;100561.00;4971431;28;97077;-63
2023/08/30 02:02:42;;;;;;;1.60;1.50;;;;;;;15.18;59.07;100552.47;4968747;28;96969;-63
2023/08/30 02:05:09;;;;;;;1.20;1.10;;;;;;;15.17;58.96;100555.78;4963997;28;97126;-63
2023/08/30 02:07:48;;;;;;;1.30;1.17;;;;;;;15.14;58.89;100554.81;4972042;28;97392;-63
2023/08/30 02:10:21;;;;;;;1.23;1.13;;;;;;;15.07;58.85;100552.63;4966996;28;97198;-63
2023/08/30 02:12:48;;;;;;;1.00;1.00;;;;;;;15.00;58.99;100559.53;4972894;28;96504;-63
2023/08/30 02:15:15;;;;;;;1.20;1.20;;;;;;;15.00;59.03;100559.53;4970996;28;96831;-63
2023/08/30 02:17:41;;;;;;;1.60;1.47;;;;;;;14.94;58.99;100555.34;4972562;28;97403;-64
2023/08/30 02:20:07;;;;;;;1.40;1.30;;;;;;;14.92;59.05;100564.19;4969374;28;97105;-63
2023/08/30 02:22:33;;;;;;;1.10;1.10;;;;;;;14.90;59.21;100566.72;4973317;28;97151;-63
2023/08/30 02:24:59;;;;;;;1.47;1.17;;;;;;;14.88;59.13;100563.75;4966410;28;96662;-63
2023/08/30 02:27:24;;;;;;;1.27;1.17;;;;;;;14.89;59.35;100568.03;4967431;28;99226;-63
2023/08/30 02:29:50;;;;;;;1.57;1.37;;;;;;;14.88;59.33;100568.53;4971022;28;97094;-63
2023/08/30 02:32:20;;;;;;;1.07;1.07;;;;;;;14.88;59.32;100568.53;4968431;28;96731;-63
2023/08/30 02:34:45;;;;;;;1.00;1.00;;;;;;;14.86;59.35;100554.44;4967903;28;97187;-63
2023/08/30 02:37:11;;;;;;;1.30;1.20;;;;;;;14.86;59.27;100568.28;4974423;28;97853;-63
2023/08/30 02:39:36;;;;;;;1.17;1.13;;;;;;;14.80;59.29;100557.31;4973483;28;107592;-63
2023/08/30 02:42:01;;;;;;;1.27;1.20;;;;;;;14.81;59.39;100556.03;4968444;28;97127;-63
2023/08/30 02:44:27;;;;;;;1.30;1.20;;;;;;;14.82;59.26;100554.00;4968985;28;96974;-64
2023/08/30 02:46:52;;;;;;;1.20;1.20;;;;;;;14.79;59.48;100560.59;4963078;28;97512;-65
2023/08/30 02:49:17;;;;;;;1.40;1.10;;;;;;;14.78;59.68;100568.16;4967381;28;104354;-62
2023/08/30 02:51:43;;;;;;;1.93;1.30;;;;;;;14.76;59.61;100559.63;4969609;28;97365;-63
2023/08/30 02:54:08;;;;;;;1.40;1.30;;;;;;;14.77;59.63;100555.56;4966863;28;97369;-63
2023/08/30 02:56:33;;;;;;;1.40;1.30;;;;;;;14.76;59.71;100559.63;4971555;28;96966;-64
2023/08/30 02:58:58;;;;;;;1.77;1.40;;;;;;;14.79;59.48;100553.03;4967409;28;97069;-65
2023/08/30 03:01:24;;;;;;;1.60;1.30;;;;;;;14.77;59.44;100549.28;4963745;28;97010;-62
2023/08/30 03:03:49;;;;;;;1.33;1.23;;;;;;;14.76;59.41;100550.56;4968932;28;97209;-64
2023/08/30 03:06:14;;;;;;;1.60;1.50;;;;;;;14.75;59.35;100538.72;4965479;28;97290;-63
2023/08/30 03:08:40;;;;;;;1.40;1.30;;;;;;;14.71;59.54;100537.53;4961313;28;97037;-64
2023/08/30 03:11:10;;;;;;;1.70;1.60;;;;;;;14.72;59.34;100539.78;4965640;28;97023;-63
2023/08/30 03:13:36;;;;;;;2.47;1.40;;;;;;;14.69;59.36;100549.13;4969785;28;96845;-65
2023/08/30 03:16:02;;;;;;;1.53;1.43;;;;;;;14.67;59.56;100548.91;4967409;28;97446;-63
2023/08/30 03:18:27;;;;;;;1.40;1.30;;;;;;;14.65;59.57;100554.22;4963341;28;97448;-65
2023/08/30 03:21:02;;;;;;;1.60;1.50;;;;;;;14.64;59.78;100541.66;4967360;28;97444;-65
2023/08/30 03:23:27;;;;;;;1.10;1.10;;;;;;;14.64;59.63;100560.28;4964240;28;96922;-63
2023/08/30 03:25:53;;;;;;;1.63;1.53;;;;;;;14.63;59.63;100548.47;4964668;28;97433;-65
2023/08/30 03:28:18;;;;;;;1.50;1.40;;;;;;;14.60;59.52;100548.75;4969039;28;97225;-63
2023/08/30 03:30:43;;;;;;;1.20;1.20;;;;;;;14.59;59.61;100553.53;4961496;28;96750;-63
2023/08/30 03:33:09;;;;;;;2.50;1.50;;;;;;;14.60;59.54;100551.53;4961248;28;99887;-62
2023/08/30 03:35:37;;;;;;;1.20;1.20;;;;;;;14.58;59.63;100554.81;4964815;28;105705;-65
2023/08/30 03:38:03;;;;;;;0.97;0.97;;;;;;;14.58;59.71;100563.13;4965194;28;96862;-64
2023/08/30 03:40:29;;;;;;;1.10;1.10;;;;;;;14.60;60.02;100557.06;4966430;28;97220;-65
2023/08/30 03:42:55;;;;;;;1.20;1.20;;;;;;;14.62;59.75;100546.97;4964506;28;97268;-65
2023/08/30 03:45:20;;;;;;;1.73;1.07;;;;;;;14.63;59.85;100542.94;4962578;28;103109;-63
2023/08/30 03:47:45;;;;;;;1.17;1.17;;;;;;;14.65;60.05;100536.88;4964931;28;97487;-62
2023/08/30 03:50:11;;;;;;;1.70;1.60;;;;;;;14.67;60.12;100540.59;4966525;28;97126;-63
2023/08/30 03:52:36;;;;;;;1.30;1.30;;;;;;;14.68;60.08;100533.78;4962481;28;97161;-63
2023/08/30 03:55:01;;;;;;;1.37;1.37;;;;;;;14.70;59.88;100527.75;4957528;28;97906;-63
2023/08/30 03:57:27;;;;;;;1.40;1.30;;;;;;;14.72;60.08;100533.50;4965735;28;97720;-63
2023/08/30 03:59:52;;;;;;;2.07;1.50;;;;;;;14.73;60.02;100521.13;4965376;28;96990;-63
2023/08/30 04:02:18;;;;;;;1.53;1.43;;;;;;;14.71;60.27;100527.22;4966782;28;97454;-63
2023/08/30 04:04:46;;;;;;;1.47;1.37;;;;;;;14.73;60.05;100523.91;4967366;28;107475;-63
2023/08/30 04:07:11;;;;;;;1.50;1.40;;;;;;;14.75;59.99;100518.59;4965983;28;97292;-63
2023/08/30 04:09:36;;;;;;;1.30;1.30;;;;;;;14.73;60.12;100524.66;4968037;28;97694;-63
2023/08/30 04:12:04;;;;;;;1.57;1.47;;;;;;;14.73;60.08;100512.84;4965090;28;96789;-64
2023/08/30 04:14:30;;;;;;;3.37;1.10;;;;;;;14.74;59.96;100522.66;4956987;28;97169;-62
2023/08/30 04:16:55;;;;;;;1.47;1.37;;;;;;;14.73;60.15;100507.28;4965238;28;97157;-64
2023/08/30 04:19:20;;;;;;;1.23;1.23;;;;;;;14.73;60.25;100512.84;4964668;28;96993;-64
2023/08/30 04:21:46;;;;;;;1.47;1.37;;;;;;;14.72;60.31;100512.06;4965063;28;96751;-63
2023/08/30 04:24:11;;;;;;;1.60;1.50;;;;;;;14.73;60.16;100508.03;4969652;28;97161;-62
2023/08/30 04:26:37;;;;;;;1.43;1.33;;;;;;;14.72;60.20;100505.81;4965371;28;97101;-63
2023/08/30 04:29:03;;;;;;;2.50;1.70;;;;;;;14.73;60.33;100507.28;4968784;28;96680;-63
2023/08/30 04:31:29;;;;;;;1.47;1.37;;;;;;;14.73;60.34;100507.28;4969296;28;96898;-63
2023/08/30 04:33:55;;;;;;;1.37;1.27;;;;;;;14.72;60.23;100506.53;4970332;28;97058;-63
2023/08/30 04:36:21;;;;;;;1.57;1.47;;;;;;;14.74;60.34;100509.53;4969467;28;97791;-63
2023/08/30 04:38:46;;;;;;;1.43;1.27;;;;;;;14.74;60.41;100504.00;4971963;28;97039;-63
2023/08/30 04:41:12;;;;;;;1.37;1.27;;;;;;;14.75;60.32;100507.50;4969455;28;96927;-63
2023/08/30 04:43:37;;;;;;;1.90;1.80;;;;;;;14.73;60.44;100521.91;4967180;28;97157;-63
2023/08/30 04:46:02;;;;;;;1.50;1.40;;;;;;;14.76;60.42;100504.25;4970598;28;100774;-63
2023/08/30 04:48:28;;;;;;;1.43;1.33;;;;;;;14.80;60.54;100507.47;4968215;28;97379;-63
2023/08/30 04:51:04;;;;;;;1.80;1.70;;;;;;;14.81;60.85;100508.94;4966909;28;97223;-62
2023/08/30 04:53:29;;;;;;;1.73;1.63;;;;;;;14.81;60.65;100514.47;4973884;28;98013;-63
2023/08/30 04:55:55;;;;;;;1.63;1.53;;;;;;;14.84;60.65;100507.13;4972648;28;97470;-63
2023/08/30 04:58:20;;;;;;;1.40;1.30;;;;;;;14.86;60.62;100513.66;4966028;28;96918;-63
2023/08/30 05:00:46;;;;;;;1.80;1.70;;;;;;;14.90;60.61;100507.81;4969380;28;97323;-63
2023/08/30 05:03:11;;;;;;;6.30;1.63;;;;;;;14.93;60.73;100506.75;4965298;28;96800;-63
2023/08/30 05:05:37;;;;;;;1.30;1.30;;;;;;;14.97;60.74;100507.97;4968451;28;97147;-63
2023/08/30 05:08:03;;;;;;;1.60;1.50;;;;;;;15.00;60.70;100506.88;4968204;28;96867;-63
2023/08/30 05:10:28;;;;;;;1.80;1.70;;;;;;;15.02;60.81;100498.81;4968352;28;97035;-63
2023/08/30 05:12:53;;;;;;;1.73;1.63;;;;;;;15.05;60.78;100501.81;4971152;28;103834;-63
2023/08/30 05:15:19;;;;;;;1.50;1.40;;;;;;;15.08;60.71;100500.75;4967363;28;97147;-63
2023/08/30 05:17:44;;;;;;;1.60;1.50;;;;;;;15.10;60.83;100504.50;4972427;28;97036;-63
2023/08/30 05:20:10;;;;;;;1.60;1.50;;;;;;;15.15;61.01;100514.00;4970362;28;97038;-63
2023/08/30 05:22:35;;;;;;;3.33;1.80;;;;;;;15.19;61.16;100514.44;4968336;28;96909;-63
2023/08/30 05:25:01;;;;;;;1.60;1.50;;;;;;;15.26;60.98;100513.81;4969265;28;97070;-63
2023/08/30 05:27:27;;;;;;;2.03;1.93;;;;;;;15.32;61.07;100525.56;4968500;28;96919;-63
2023/08/30 05:29:53;;;;;;;2.00;1.90;;;;;;;15.36;61.11;100523.22;4967694;28;96708;-63
2023/08/30 05:32:18;;;;;;;1.50;1.40;;;;;;;15.39;61.06;100519.41;4966290;28;97114;-63
2023/08/30 05:34:44;;;;;;;1.60;1.50;;;;;;;15.45;61.12;100520.09;4964272;28;97063;-63
2023/08/30 05:37:09;;;;;;;5.60;1.57;;;;;;;15.49;61.10;100526.06;4969497;28;97189;-63
2023/08/30 05:39:35;;;;;;;2.37;2.03;;;;;;;15.57;61.01;100521.41;4967418;28;97024;-63
2023/08/30 05:42:00;;;;;;;1.80;1.70;;;;;;;15.60;61.09;100512.78;4967440;28;97367;-63
2023/08/30 05:44:25;;;;;;;2.40;2.30;;;;;;;15.65;61.23;100514.72;4971643;28;97890;-63
2023/08/30 05:46:51;;;;;;;2.53;2.43;;;;;;;15.72;61.20;100513.34;4969584;28;97586;-62
2023/08/30 05:49:16;;;;;;;2.07;1.97;;;;;;;15.79;61.22;100509.94;4965147;28;96849;-62
2023/08/30 05:51:42;;;;;;;2.80;2.60;;;;;;;15.82;61.17;100497.75;4968237;28;97425;-62
2023/08/30 05:54:07;;;;;;;2.00;1.90;;;;;;;15.88;61.26;100497.66;4970515;28;97144;-62
2023/08/30 05:56:32;;;;;;;2.63;2.53;;;;;;;15.91;61.05;100497.34;4966349;28;96998;-62
2023/08/30 05:58:58;;;;;;;3.23;3.00;;;;;;;15.96;61.31;100496.50;4963731;28;97059;-62
2023/08/30 06:01:23;;;;;;;2.97;2.77;;;;;;;16.03;61.34;100495.13;4968674;28;96571;-61
2023/08/30 06:03:48;;;;;;;2.63;2.47;;;;;;;16.09;61.24;100504.06;4969690;28;97534;-62
2023/08/30 06:06:15;;;;;;;2.80;2.63;;;;;;;16.15;61.21;100511.00;4969186;28;99787;-62
2023/08/30 06:08:41;;;;;;;3.30;3.10;;;;;;;16.22;61.23;100504.06;4967653;28;97075;-62
2023/08/30 06:11:06;;;;;;;2.90;2.70;;;;;;;16.26;61.33;100501.72;4967667;28;97896;-62
2023/08/30 06:13:31;;;;;;;2.30;2.20;;;;;;;16.32;61.14;100500.31;4955671;28;99281;-62
2023/08/30 06:15:57;;;;;;;3.47;3.13;;;;;;;16.37;61.16;100493.91;4967344;28;97099;-62
2023/08/30 06:18:22;;;;;;;3.00;2.70;;;;;;;16.45;61.16;100502.31;4968678;28;96904;-62
2023/08/30 06:20:48;;;;;;;3.40;2.80;;;;;;;16.49;61.36;100509.03;4968697;28;97046;-62
2023/08/30 06:23:15;;;;;;;2.37;2.10;;;;;;;16.58;61.19;100501.59;4963707;28;96829;-62
2023/08/30 06:25:41;;;;;;;2.20;2.10;;;;;;;16.66;61.24;100499.66;4966197;28;97397;-62
2023/08/30 06:28:06;;;;;;;2.10;2.00;;;;;;;16.73;61.19;100494.16;4964172;28;97182;-62
2023/08/30 06:30:32;;;;;;;2.87;2.67;;;;;;;16.81;61.24;100494.25;4965833;28;106016;-62
2023/08/30 06:32:57;;;;;;;2.73;2.57;;;;;;;16.87;61.26;100489.31;4966291;28;98470;-61
2023/08/30 06:35:23;;;;;;;4.23;2.60;;;;;;;16.95;61.23;100485.31;4969273;28;97454;-63
2023/08/30 06:37:49;;;;;;;2.53;2.43;;;;;;;17.01;61.25;100485.97;4971634;28;96587;-63
2023/08/30 06:40:14;;;;;;;2.60;2.27;;;;;;;17.09;61.24;100486.78;4967114;28;97754;-63
2023/08/30 06:42:40;;;;;;;2.43;2.30;;;;;;;17.16;61.10;100485.34;4968729;28;96792;-63
2023/08/30 06:45:06;;;;;;;3.60;3.30;;;;;;;17.21;61.26;100478.94;4968055;28;99203;-63
2023/08/30 06:47:31;;;;;;;3.07;2.83;;;;;;;17.29;61.31;100476.94;4966239;28;97115;-63
2023/08/30 06:49:57;;;;;;;5.27;3.33;;;;;;;17.35;61.31;100466.44;4969790;28;98291;-63
2023/08/30 06:52:23;;;;;;;3.00;2.80;;;;;;;17.43;61.29;100474.84;4970371;28;97477;-63
2023/08/30 06:54:48;;;;;;;3.70;3.37;;;;;;;17.46;61.09;100457.81;4968727;28;96809;-62
2023/08/30 06:57:13;;;;;;;3.40;3.20;;;;;;;17.55;61.33;100467.72;4970332;28;96880;-63
2023/08/30 06:59:39;;;;;;;3.20;2.90;;;;;;;17.62;61.24;100469.81;4965959;28;102808;-61
2023/08/30 07:02:04;;;;;;;2.83;2.63;;;;;;;17.68;61.40;100462.06;4964296;28;100139;-63
2023/08/30 07:04:29;;;;;;;4.40;3.63;;;;;;;17.76;61.46;100465.63;4967267;28;97098;-64
2023/08/30 07:06:55;;;;;;;2.80;2.60;;;;;;;17.85;61.33;100465.13;4963586;28;98844;-62
2023/08/30 07:09:22;;;;;;;3.77;3.50;;;;;;;17.91;61.22;100460.16;4969010;28;96934;-65
2023/08/30 07:11:47;;;;;;;3.20;3.00;;;;;;;17.98;61.13;100463.00;4967915;28;97296;-62
2023/08/30 07:14:14;;;;;;;3.83;3.53;;;;;;;18.07;61.21;100463.78;4966906;28;96956;-62
2023/08/30 07:16:40;;;;;;;3.47;3.27;;;;;;;18.14;61.10;100474.22;4967149;28;96929;-62
2023/08/30 07:19:05;;;;;;;4.20;3.80;;;;;;;18.23;61.19;100463.31;4963579;28;97239;-64
2023/08/30 07:21:30;;;;;;;3.93;3.63;;;;;;;18.31;61.07;100468.91;4964460;28;96731;-64
2023/08/30 07:23:56;;;;;;;4.83;4.37;;;;;;;18.39;60.86;100461.34;4963484;28;96954;-63
2023/08/30 07:26:21;;;;;;;4.60;4.20;;;;;;;18.46;60.83;100455.06;4963106;28;97287;-61
2023/08/30 07:28:47;;;;;;;5.10;4.60;;;;;;;18.54;60.58;100464.22;4964462;28;97021;-64
2023/08/30 07:31:18;;;;;;;5.37;4.87;;;;;;;18.62;60.86;100467.75;4965594;28;97314;-65
2023/08/30 07:33:43;;;;;;;5.13;4.63;;;;;;;18.67;60.45;100470.38;4968191;28;97008;-64
2023/08/30 07:36:09;;;;;;;5.90;4.73;;;;;;;18.72;60.51;100471.50;4963967;28;97013;-63
2023/08/30 07:38:34;;;;;;;5.00;4.40;;;;;;;18.79;60.52;100462.41;4966832;28;97327;-64
2023/08/30 07:41:00;;;;;;;4.87;4.37;;;;;;;18.86;60.12;100464.47;4962938;28;97218;-63
2023/08/30 07:43:26;;;;;;;6.10;5.10;;;;;;;18.92;60.23;100462.25;4968267;28;97232;-62
2023/08/30 07:45:51;;;;;;;4.90;4.10;;;;;;;19.02;60.27;100456.91;4967529;28;97240;-62
2023/08/30 07:48:17;;;;;;;4.67;4.17;;;;;;;19.10;60.38;100461.19;4965525;28;98606;-65
2023/08/30 07:50:42;;;;;;;4.20;3.90;;;;;;;19.18;60.22;100459.13;4965779;28;97252;-63
2023/08/30 07:53:07;;;;;;;6.63;5.03;;;;;;;19.27;59.84;100458.59;4965571;28;97361;-62
2023/08/30 07:55:32;;;;;;;4.30;3.97;;;;;;;19.35;59.92;100456.56;4967816;28;97384;-62
2023/08/30 07:57:58;;;;;;;5.83;5.17;;;;;;;19.36;59.92;100451.72;4973826;28;108526;-66
2023/08/30 08:00:23;;;;;;;5.60;4.83;;;;;;;19.41;59.52;100457.13;4971195;28;97297;-63
2023/08/30 08:02:48;;;;;;;4.30;4.00;;;;;;;19.47;59.72;100450.59;4966594;28;97112;-62
2023/08/30 08:05:14;;;;;;;5.10;4.60;;;;;;;19.55;59.72;100460.44;4968456;28;97187;-61
2023/08/30 08:07:42;;;;;;;5.43;4.93;;;;;;;19.64;59.51;100454.31;4968855;28;98134;-61
2023/08/30 08:10:07;;;;;;;6.37;5.20;;;;;;;19.72;59.43;100459.91;4970245;28;97269;-62
2023/08/30 08:12:33;;;;;;;7.30;5.20;;;;;;;19.80;59.19;100457.81;4970359;28;97117;-64
2023/08/30 08:14:58;;;;;;;5.03;4.53;;;;;;;19.81;59.28;100460.03;4969330;28;97305;-61
2023/08/30 08:17:24;;;;;;;5.53;4.90;;;;;;;19.92;59.16;100458.94;4969259;28;100896;-63
2023/08/30 08:19:49;;;;;;;5.73;5.13;;;;;;;19.98;58.83;100457.41;4968672;28;96700;-62
2023/08/30 08:22:14;;;;;;;7.20;5.20;;;;;;;20.05;58.66;100461.50;4972050;28;97040;-62
2023/08/30 08:24:40;;;;;;;5.43;5.03;;;;;;;20.14;58.77;100452.50;4969262;28;97060;-62
2023/08/30 08:27:05;;;;;;;5.80;4.70;;;;;;;20.24;58.66;100452.69;4973181;28;97217;-61
2023/08/30 08:29:31;;;;;;;5.97;5.37;;;;;;;20.32;58.33;100448.56;4968920;28;96691;-62
2023/08/30 08:31:57;;;;;;;6.47;5.27;;;;;;;20.38;58.20;100451.88;4967833;28;97411;-61
2023/08/30 08:34:22;;;;;;;5.50;4.67;;;;;;;20.50;58.07;100447.38;4971912;28;97039;-62
2023/08/30 08:36:47;;;;;;;5.10;4.30;;;;;;;20.62;58.16;100448.41;4972548;28;97617;-61
2023/08/30 08:39:14;;;;;;;4.77;4.37;;;;;;;20.73;57.88;100439.59;4965758;28;96911;-64
2023/08/30 08:41:43;;;;;;;4.67;4.30;;;;;;;20.86;57.75;100447.72;4968880;28;96770;-62
2023/08/30 08:44:09;;;;;;;5.63;5.13;;;;;;;20.99;57.49;100459.94;4970182;28;97165;-66
2023/08/30 08:46:38;;;;;;;5.10;4.30;;;;;;;21.09;57.34;100449.66;4968950;28;96801;-62
2023/08/30 08:49:10;;;;;;;4.83;4.00;;;;;;;21.20;56.87;100449.94;4967663;28;96823;-63
2023/08/30 08:51:37;;;;;;;5.37;4.77;;;;;;;21.32;56.92;100453.00;4969351;28;96752;-62
2023/08/30 08:54:04;;;;;;;4.73;4.33;;;;;;;21.46;56.87;100451.41;4973805;28;97111;-62
2023/08/30 08:56:34;;;;;;;5.07;4.57;;;;;;;21.59;56.46;100448.28;4968268;28;97944;-64
2023/08/30 08:59:00;;;;;;;4.70;4.30;;;;;;;21.66;56.55;100441.88;4964413;28;96817;-65
2023/08/30 09:01:26;;;;;;;4.60;4.20;;;;;;;21.74;56.13;100447.38;4969011;28;97189;-64
2023/08/30 09:03:51;;;;;;;5.27;4.53;;;;;;;21.81;56.12;100447.31;4971922;28;97128;-63
2023/08/30 09:06:18;;;;;;;4.60;3.80;;;;;;;21.86;56.19;100442.81;4968944;28;97486;-64
2023/08/30 09:08:44;;;;;;;5.20;4.70;;;;;;;21.89;55.88;100447.25;4967588;28;97225;-64
2023/08/30 09:11:09;;;;;;;4.50;4.10;;;;;;;21.91;55.64;100450.97;4966163;28;97119;-62
2023/08/30 09:13:35;;;;;;;4.33;4.00;;;;;;;21.94;55.54;100438.63;4970307;28;96756;-63
2023/08/30 09:16:02;;;;;;;4.20;3.80;;;;;;;21.96;55.49;100438.78;4968053;28;97505;-63
2023/08/30 09:18:28;;;;;;;3.50;3.13;;;;;;;22.03;55.50;100440.03;4971821;28;97210;-64
2023/08/30 09:21:08;;;;;;;3.90;3.27;;;;;;;22.14;55.09;100445.13;4969906;28;97988;-63
2023/08/30 09:23:34;;;;;;;5.93;3.40;;;;;;;22.26;55.24;100446.09;4970123;28;96758;-64
2023/08/30 09:25:59;;;;;;;4.00;3.47;;;;;;;22.34;55.10;100447.47;4966675;28;98482;-63
2023/08/30 09:28:25;;;;;;;4.10;3.70;;;;;;;22.41;54.71;100440.28;4967464;28;97326;-62
2023/08/30 09:30:51;;;;;;;3.60;3.30;;;;;;;22.44;54.62;100446.81;4969731;28;97054;-62
2023/08/30 09:33:21;;;;;;;4.43;3.93;;;;;;;22.43;54.20;100442.53;4965016;28;97478;-62
2023/08/30 09:35:46;;;;;;;7.33;3.50;;;;;;;22.43;54.41;100445.34;4967922;28;98979;-66
2023/08/30 09:38:18;;;;;;;4.00;3.63;;;;;;;22.43;53.48;100443.28;4966816;28;97217;-64
2023/08/30 09:40:45;;;;;;;6.00;3.70;;;;;;;22.44;54.36;100467.16;4967004;28;96991;-63
2023/08/30 09:43:12;;;;;;;3.40;3.10;;;;;;;22.48;54.20;100444.31;4966119;28;97150;-63
2023/08/30 09:45:37;;;;;;;3.27;2.97;;;;;;;22.48;54.04;100447.13;4965650;28;97531;-65
2023/08/30 09:48:03;;;;;;;3.70;3.40;;;;;;;22.52;53.87;100450.25;4969600;28;97203;-63
2023/08/30 09:50:34;;;;;;;6.43;2.80;;;;;;;22.54;53.32;100439.22;4965469;28;97107;-64
2023/08/30 09:53:06;;;;;;;3.03;2.73;;;;;;;22.58;53.58;100431.84;4968165;28;96720;-63
2023/08/30 09:55:32;;;;;;;4.73;3.60;;;;;;;22.64;53.56;100437.97;4966071;28;97270;-62
2023/08/30 09:57:58;;;;;;;6.00;3.50;;;;;;;22.69;53.57;100436.22;4970887;28;96838;-63
2023/08/30 10:00:23;;;;;;;3.57;3.00;;;;;;;22.74;53.30;100430.34;4967468;28;97035;-63
2023/08/30 10:02:49;;;;;;;4.73;3.50;;;;;;;22.76;53.23;100435.38;4967689;28;97216;-62
2023/08/30 10:05:15;;;;;;;4.50;3.40;;;;;;;22.78;53.28;100433.44;4965898;28;97105;-64
2023/08/30 10:07:43;;;;;;;3.20;2.97;;;;;;;22.83;53.24;100434.50;4967972;28;97811;-63
2023/08/30 10:10:10;;;;;;;8.50;5.00;;;;;;;22.90;53.09;100439.28;4968190;28;97252;-61
2023/08/30 10:12:36;;;;;;;5.27;4.77;;;;;;;22.95;53.29;100446.69;4966257;28;97251;-63
2023/08/30 10:15:02;;;;;;;4.43;4.03;;;;;;;23.00;53.18;100442.84;4964512;28;97451;-64
2023/08/30 10:17:31;;;;;;;6.10;4.90;;;;;;;22.95;52.99;100436.22;4964368;28;98770;-62
2023/08/30 10:19:57;;;;;;;5.20;4.67;;;;;;;22.92;53.22;100439.41;4968670;28;97112;-62
2023/08/30 10:22:24;;;;;;;3.93;3.63;;;;;;;22.92;53.42;100431.00;4967785;28;97301;-62
2023/08/30 10:25:00;;;;;;;3.67;3.37;;;;;;;22.87;52.92;100432.00;4968841;28;96855;-62
2023/08/30 10:27:27;;;;;;;6.43;4.73;;;;;;;22.83;53.53;100438.06;4962978;28;97254;-61
2023/08/30 10:29:54;;;;;;;5.73;5.03;;;;;;;22.80;53.20;100453.25;4969216;28;97136;-62
2023/08/30 10:32:21;;;;;;;5.30;4.80;;;;;;;22.82;53.48;100439.41;4967434;28;97053;-63
2023/08/30 10:34:49;;;;;;;4.60;4.00;;;;;;;22.86;53.32;100427.75;4966427;28;96803;-64
2023/08/30 10:37:15;;;;;;;4.00;3.67;;;;;;;22.90;53.26;100428.03;4967845;28;97205;-62
2023/08/30 10:39:41;;;;;;;5.30;4.80;;;;;;;22.90;53.32;100434.41;4968879;28;96860;-62
2023/08/30 10:42:09;;;;;;;4.63;3.80;;;;;;;22.94;53.37;100433.97;4965702;28;97000;-63
2023/08/30 10:44:35;;;;;;;5.53;5.03;;;;;;;22.96;53.36;100429.25;4965263;28;96797;-64
2023/08/30 10:47:03;;;;;;;5.70;5.20;;;;;;;22.95;53.00;100427.78;4966741;28;97585;-62
2023/08/30 10:49:29;;;;;;;4.80;4.40;;;;;;;22.94;53.06;100422.75;4963966;28;97208;-64
2023/08/30 10:52:00;;;;;;;5.07;4.57;;;;;;;22.97;53.20;100421.59;4964646;28;97285;-62
2023/08/30 10:54:37;;;;;;;6.63;4.63;;;;;;;22.96;52.54;100420.84;4965470;28;97386;-63
2023/08/30 10:57:02;;;;;;;6.07;4.30;;;;;;;22.97;52.72;100427.19;4962814;28;97355;-63
2023/08/30 10:59:29;;;;;;;3.67;3.33;;;;;;;23.04;52.64;100427.06;4965684;28;96581;-62
2023/08/30 11:01:58;;;;;;;4.37;3.23;;;;;;;23.14;52.63;100418.69;4967809;28;97182;-64
2023/08/30 11:04:24;;;;;;;3.40;3.13;;;;;;;23.26;52.49;100419.63;4964401;28;97088;-62
2023/08/30 11:06:51;;;;;;;5.47;3.47;;;;;;;23.41;51.78;100408.16;4968066;28;97161;-61
2023/08/30 11:09:18;;;;;;;5.23;3.47;;;;;;;23.57;51.59;100402.97;4963730;28;97147;-62
2023/08/30 11:11:47;;;;;;;4.27;3.23;;;;;;;23.75;51.51;100407.91;4961940;28;97214;-64
2023/08/30 11:14:14;;;;;;;3.63;3.20;;;;;;;23.84;51.26;100398.72;4962040;28;97434;-63
2023/08/30 11:16:40;;;;;;;4.27;3.87;;;;;;;23.86;50.87;100389.69;4966291;28;96877;-63
2023/08/30 11:19:07;;;;;;;5.10;3.40;;;;;;;23.84;51.13;100398.72;4964290;28;97268;-64
2023/08/30 11:21:34;;;;;;;3.67;3.20;;;;;;;23.76;50.79;100386.88;4963206;28;97015;-62